首页
METAR-TAF:

METAR-TAF

机场 :

Deer Park Airport

Deer Park, 华盛顿, 美国

纬度: 47-58-27N, 经度: 117-25-42W, 海拔: 672米

当前天气观测

该预报发布于53分钟前的06:53 UTC
风速3节,风向西
温度 24°C
湿度 44%
气压 1014 hPa
能見度: 16.1公里
天空无云

METAR: KDEW 220653Z AUTO 27003KT 10SM CLR 24/11 A2993 RMK AO2 SLP111 T02390106 $

时间: 00:46 (07:46 UTC)


TAF: 丢失

超过4000个机场的气象观测和天气预报(METAR&TAF报告)。

可查询的气象台以黄色和红色小点在地图上表示。

将鼠标移到小点上方,可查看气象台名称。

然后点击查看天气观测和预报。

如需切换地图:点击带黑十字的绿色按钮放大地图;点击带横线的绿色按钮缩小地图;或者点击绿色箭头查看邻近地区的地图。


METAR-TAF: